createdAt,value
2018-06-12T00:00:05.205Z,100719.91
2018-06-12T00:02:34.509Z,100719.69
2018-06-12T00:05:03.987Z,100718.35
2018-06-12T00:07:33.387Z,100716.91
2018-06-12T00:10:02.625Z,100722.52
2018-06-12T00:12:31.923Z,100720.45
2018-06-12T00:15:01.143Z,100717.30
2018-06-12T00:17:31.199Z,100712.55
2018-06-12T00:20:00.365Z,100720.73
2018-06-12T00:22:29.738Z,100714.52
2018-06-12T00:24:59.047Z,100720.25
2018-06-12T00:27:28.614Z,100722.09
2018-06-12T00:29:57.836Z,100717.35
2018-06-12T00:32:27.048Z,100721.59
2018-06-12T00:34:56.306Z,100725.70
2018-06-12T00:37:26.130Z,100728.38
2018-06-12T00:39:55.345Z,100727.28
2018-06-12T00:42:24.566Z,100734.59
2018-06-12T00:44:53.711Z,100723.53
2018-06-12T00:47:22.943Z,100728.86
2018-06-12T00:49:52.157Z,100728.75
2018-06-12T00:52:21.339Z,100727.54
2018-06-12T00:54:50.504Z,100731.30
2018-06-12T00:57:19.754Z,100729.25
2018-06-12T00:59:49.004Z,100727.19
2018-06-12T01:02:18.257Z,100718.17
2018-06-12T01:04:47.463Z,100720.00
2018-06-12T01:07:16.765Z,100728.03
2018-06-12T01:09:45.945Z,100731.55
2018-06-12T01:12:15.063Z,100734.68
2018-06-12T01:14:44.287Z,100731.18
2018-06-12T01:17:13.555Z,100729.70
2018-06-12T01:19:42.824Z,100737.84
2018-06-12T01:22:12.013Z,100735.64
2018-06-12T01:24:41.211Z,100739.41
2018-06-12T01:27:10.587Z,100735.53
2018-06-12T01:29:40.782Z,100749.59
2018-06-12T01:32:09.912Z,100746.92
2018-06-12T01:34:39.762Z,100747.30
2018-06-12T01:37:08.968Z,100755.55
2018-06-12T01:39:38.353Z,100754.58
2018-06-12T01:42:07.519Z,100755.80
2018-06-12T01:44:36.660Z,100758.94
2018-06-12T01:47:05.840Z,100753.36
2018-06-12T01:49:35.051Z,100762.05
2018-06-12T01:52:04.251Z,100756.48
2018-06-12T01:54:33.447Z,100758.17
2018-06-12T01:57:02.633Z,100764.69
2018-06-12T01:59:31.846Z,100770.66
2018-06-12T02:02:00.997Z,100764.48
2018-06-12T02:04:30.592Z,100765.31
2018-06-12T02:06:59.753Z,100766.26
2018-06-12T02:15:22.506Z,100746.91
2018-06-12T02:17:51.817Z,100744.12
2018-06-12T02:20:21.006Z,100745.69
2018-06-12T02:22:50.755Z,100739.48
2018-06-12T02:25:19.976Z,100746.39
2018-06-12T02:27:49.287Z,100736.04
2018-06-12T02:30:18.670Z,100737.60
2018-06-12T02:32:47.835Z,100741.95
2018-06-12T02:35:17.866Z,100739.10
2018-06-12T02:37:47.146Z,100746.11
2018-06-12T02:40:16.344Z,100750.19
2018-06-12T02:42:45.557Z,100751.00
2018-06-12T02:45:14.741Z,100745.59
2018-06-12T02:47:44.119Z,100745.54
2018-06-12T02:50:13.343Z,100751.46
2018-06-12T02:52:42.523Z,100745.41
2018-06-12T02:55:11.709Z,100747.46
2018-06-12T02:57:40.826Z,100745.77
2018-06-12T03:00:10.134Z,100749.64
2018-06-12T03:02:39.255Z,100754.23
2018-06-12T03:05:08.458Z,100753.53
2018-06-12T03:07:37.765Z,100752.73
2018-06-12T03:10:07.057Z,100752.89
2018-06-12T03:12:36.266Z,100747.40
2018-06-12T03:15:05.523Z,100743.05
2018-06-12T03:17:34.724Z,100745.13
2018-06-12T03:20:03.969Z,100744.72
2018-06-12T03:22:33.203Z,100743.50
2018-06-12T03:25:02.408Z,100746.97
2018-06-12T03:27:31.626Z,100741.75
2018-06-12T03:30:00.828Z,100740.11
2018-06-12T03:32:30.146Z,100740.02
2018-06-12T03:34:59.382Z,100743.52
2018-06-12T03:37:28.656Z,100738.27
2018-06-12T03:39:57.980Z,100739.19
2018-06-12T03:42:27.178Z,100745.32
2018-06-12T03:44:56.369Z,100743.77
2018-06-12T03:47:25.605Z,100740.35
2018-06-12T03:49:54.805Z,100745.02
2018-06-12T03:52:24.287Z,100739.41
2018-06-12T03:54:53.472Z,100747.52
2018-06-12T03:57:22.691Z,100744.74
2018-06-12T03:59:51.970Z,100741.58
2018-06-12T04:02:21.177Z,100742.66
2018-06-12T04:04:50.417Z,100751.77
2018-06-12T04:07:19.706Z,100743.22
2018-06-12T04:09:49.008Z,100750.95
2018-06-12T04:12:18.302Z,100747.34
2018-06-12T04:14:47.996Z,100754.59
2018-06-12T04:17:17.262Z,100750.38
2018-06-12T04:19:46.575Z,100751.22
2018-06-12T04:22:15.853Z,100753.09
2018-06-12T04:24:45.114Z,100752.80
2018-06-12T04:27:14.365Z,100748.44
2018-06-12T04:29:43.629Z,100745.21
2018-06-12T04:32:12.853Z,100750.07
2018-06-12T04:34:42.443Z,100751.66
2018-06-12T04:37:11.673Z,100754.73
2018-06-12T04:39:40.972Z,100759.06
2018-06-12T04:42:27.635Z,100764.89
2018-06-12T04:45:12.914Z,100769.70
2018-06-12T04:47:45.123Z,100767.44
2018-06-12T04:50:14.569Z,100766.61
2018-06-12T04:52:43.912Z,100772.08
2018-06-12T04:55:13.279Z,100772.95
2018-06-12T04:57:42.935Z,100781.93
2018-06-12T05:00:12.137Z,100780.95
2018-06-12T05:02:41.304Z,100776.59
2018-06-12T05:05:10.535Z,100775.84
2018-06-12T05:07:39.681Z,100775.39
2018-06-12T05:10:08.880Z,100776.39
2018-06-12T05:12:38.089Z,100779.78
2018-06-12T05:15:08.099Z,100791.92
2018-06-12T05:17:37.319Z,100792.67
2018-06-12T05:20:06.591Z,100792.55
2018-06-12T05:22:35.815Z,100785.30
2018-06-12T05:25:05.641Z,100789.56
2018-06-12T05:27:35.047Z,100790.59
2018-06-12T05:30:04.328Z,100796.28
2018-06-12T05:32:33.553Z,100794.84
2018-06-12T05:35:02.745Z,100796.63
2018-06-12T05:37:31.917Z,100799.98
2018-06-12T05:40:01.141Z,100799.02
2018-06-12T05:42:30.314Z,100799.53
2018-06-12T05:44:59.645Z,100806.96
2018-06-12T05:47:28.793Z,100796.47
2018-06-12T05:49:58.095Z,100806.19
2018-06-12T05:52:27.331Z,100805.91
2018-06-12T05:54:57.085Z,100802.73
2018-06-12T05:57:27.298Z,100810.91
2018-06-12T05:59:56.542Z,100815.36
2018-06-12T06:02:25.777Z,100814.30
2018-06-12T06:04:54.964Z,100815.41
2018-06-12T06:07:24.162Z,100820.78
2018-06-12T06:09:53.354Z,100815.09
2018-06-12T06:12:23.326Z,100821.53
2018-06-12T06:14:52.538Z,100820.12
2018-06-12T06:17:21.702Z,100824.13
2018-06-12T06:19:50.982Z,100829.97
2018-06-12T06:22:20.163Z,100828.36
2018-06-12T06:24:49.355Z,100832.25
2018-06-12T06:27:18.511Z,100830.05
2018-06-12T06:29:47.754Z,100833.35
2018-06-12T06:32:16.950Z,100831.89
2018-06-12T06:34:46.122Z,100830.95
2018-06-12T06:37:15.298Z,100838.73
2018-06-12T06:39:44.502Z,100841.99
2018-06-12T06:42:13.612Z,100837.27
2018-06-12T06:44:42.767Z,100839.95
2018-06-12T06:47:11.899Z,100850.30
2018-06-12T06:49:41.110Z,100851.25
2018-06-12T06:52:12.281Z,100846.98
2018-06-12T06:54:42.064Z,100842.27
2018-06-12T06:57:11.229Z,100849.92
2018-06-12T06:59:40.440Z,100851.70
2018-06-12T07:02:09.698Z,100850.00
2018-06-12T07:04:38.848Z,100841.28
2018-06-12T07:07:08.013Z,100839.09
2018-06-12T07:09:37.753Z,100839.09
2018-06-12T07:12:07.162Z,100839.95
2018-06-12T07:14:36.418Z,100839.47
2018-06-12T07:17:05.717Z,100833.98
2018-06-12T07:19:34.881Z,100835.94
2018-06-12T07:22:04.150Z,100840.30
2018-06-12T07:24:33.374Z,100841.28
2018-06-12T07:27:02.622Z,100843.44
2018-06-12T07:29:31.923Z,100837.55
2018-06-12T07:32:01.142Z,100840.75
2018-06-12T07:34:30.337Z,100840.14
2018-06-12T07:36:59.550Z,100842.58
2018-06-12T07:39:28.807Z,100850.52
2018-06-12T07:41:58.270Z,100845.30
2018-06-12T07:44:27.474Z,100846.64
2018-06-12T07:46:56.766Z,100851.02
2018-06-12T07:49:25.929Z,100856.61
2018-06-12T07:51:55.086Z,100851.25
2018-06-12T07:54:24.334Z,100853.42
2018-06-12T07:56:53.501Z,100852.09
2018-06-12T07:59:22.671Z,100861.08
2018-06-12T08:01:51.864Z,100858.88
2018-06-12T08:04:21.168Z,100857.06
2018-06-12T08:06:50.519Z,100862.53
2018-06-12T08:09:19.840Z,100856.47
2018-06-12T08:11:49.204Z,100853.44
2018-06-12T08:14:18.407Z,100854.52
2018-06-12T08:16:47.628Z,100861.79
2018-06-12T08:19:16.814Z,100850.81
2018-06-12T08:21:46.043Z,100860.95
2018-06-12T08:24:15.200Z,100855.69
2018-06-12T08:26:44.358Z,100854.70
2018-06-12T08:29:13.779Z,100852.38
2018-06-12T08:31:42.982Z,100859.45
2018-06-12T08:34:12.112Z,100855.33
2018-06-12T08:36:41.329Z,100865.66
2018-06-12T08:39:10.517Z,100862.12
2018-06-12T08:41:39.748Z,100867.58
2018-06-12T08:44:09.084Z,100861.08
2018-06-12T08:46:38.276Z,100857.87
2018-06-12T08:49:07.519Z,100861.93
2018-06-12T08:51:36.831Z,100863.36
2018-06-12T08:54:06.009Z,100860.48
2018-06-12T08:56:35.199Z,100856.92
2018-06-12T08:59:05.274Z,100864.91
2018-06-12T09:01:34.452Z,100866.68
2018-06-12T09:04:03.762Z,100864.16
2018-06-12T09:06:32.949Z,100867.09
2018-06-12T09:09:02.165Z,100869.53
2018-06-12T09:11:31.252Z,100864.81
2018-06-12T09:14:01.244Z,100870.74
2018-06-12T09:16:30.469Z,100872.80
2018-06-12T09:18:59.803Z,100878.56
2018-06-12T09:21:28.954Z,100883.94
2018-06-12T09:23:58.169Z,100875.02
2018-06-12T09:26:27.316Z,100876.50
2018-06-12T09:28:56.627Z,100888.67
2018-06-12T09:31:25.917Z,100878.75
2018-06-12T09:33:55.106Z,100882.70
2018-06-12T09:36:29.635Z,100891.10
2018-06-12T09:38:58.795Z,100887.41
2018-06-12T09:41:27.909Z,100889.74
2018-06-12T09:43:57.141Z,100894.17
2018-06-12T09:46:26.366Z,100893.31
2018-06-12T09:48:55.532Z,100893.63
2018-06-12T09:51:24.755Z,100898.56
2018-06-12T09:53:53.946Z,100897.75
2018-06-12T09:56:23.071Z,100899.58
2018-06-12T09:58:52.306Z,100903.02
2018-06-12T10:01:22.963Z,100895.95
2018-06-12T10:03:53.241Z,100916.41
2018-06-12T10:06:22.361Z,100902.39
2018-06-12T10:08:51.547Z,100915.20
2018-06-12T10:11:20.766Z,100918.02
2018-06-12T10:13:49.931Z,100921.32
2018-06-12T10:16:19.122Z,100921.05
2018-06-12T10:18:48.264Z,100915.09
2018-06-12T10:21:17.426Z,100917.63
2018-06-12T10:23:46.712Z,100921.38
2018-06-12T10:26:15.839Z,100926.09
2018-06-12T10:28:44.980Z,100926.47
2018-06-12T10:31:14.110Z,100919.97
2018-06-12T10:33:44.193Z,100920.72
2018-06-12T10:36:13.425Z,100914.09
2018-06-12T10:38:42.592Z,100910.61
2018-06-12T10:41:11.788Z,100917.30
2018-06-12T10:43:41.642Z,100907.95
2018-06-12T10:46:11.062Z,100911.73
2018-06-12T10:48:40.335Z,100909.84
2018-06-12T10:51:09.934Z,100908.64
2018-06-12T10:53:39.053Z,100913.75
2018-06-12T10:56:08.564Z,100905.30
2018-06-12T10:58:37.837Z,100905.41
2018-06-12T11:01:07.036Z,100903.66
2018-06-12T11:03:36.205Z,100907.20
2018-06-12T11:06:05.471Z,100905.92
2018-06-12T11:08:34.610Z,100896.77
2018-06-12T11:11:03.755Z,100905.84
2018-06-12T11:13:32.954Z,100899.30
2018-06-12T11:16:02.111Z,100908.44
2018-06-12T11:18:31.357Z,100906.84
2018-06-12T11:21:00.509Z,100904.61
2018-06-12T11:23:29.709Z,100900.80
2018-06-12T11:25:58.944Z,100896.36
2018-06-12T11:28:28.096Z,100900.64
2018-06-12T11:30:57.511Z,100902.98
2018-06-12T11:33:26.818Z,100904.20
2018-06-12T11:35:56.014Z,100913.33
2018-06-12T11:38:25.268Z,100906.52
2018-06-12T11:40:54.387Z,100907.30
2018-06-12T11:43:23.664Z,100903.63
2018-06-12T11:45:52.832Z,100898.91
2018-06-12T11:48:21.939Z,100907.67
2018-06-12T11:50:51.143Z,100905.38
2018-06-12T11:53:20.332Z,100897.73
2018-06-12T11:55:49.504Z,100898.45
2018-06-12T11:58:19.360Z,100893.08
2018-06-12T12:00:48.579Z,100899.17
2018-06-12T12:03:19.074Z,100895.57
2018-06-12T12:05:48.286Z,100897.04
2018-06-12T12:08:17.528Z,100894.49
2018-06-12T12:10:46.727Z,100886.94
2018-06-12T12:13:15.871Z,100893.66
2018-06-12T12:15:45.913Z,100887.70
2018-06-12T12:18:15.129Z,100890.13
2018-06-12T12:20:44.265Z,100892.72
2018-06-12T12:23:13.387Z,100888.16
2018-06-12T12:25:42.550Z,100889.62
2018-06-12T12:28:11.861Z,100884.67
2018-06-12T12:30:41.049Z,100884.55
2018-06-12T12:33:10.210Z,100881.39
2018-06-12T12:35:39.458Z,100883.45
2018-06-12T12:38:08.692Z,100872.95
2018-06-12T12:40:37.876Z,100868.72
2018-06-12T12:43:07.041Z,100870.47
2018-06-12T12:45:36.127Z,100876.03
2018-06-12T12:48:05.384Z,100885.78
2018-06-12T12:50:34.637Z,100874.21
2018-06-12T12:53:03.858Z,100869.77
2018-06-12T12:55:33.170Z,100874.00
2018-06-12T12:58:02.441Z,100871.06
2018-06-12T13:00:31.624Z,100869.80
2018-06-12T13:03:00.826Z,100877.75
2018-06-12T13:05:29.991Z,100875.51
2018-06-12T13:07:59.187Z,100880.26
2018-06-12T13:10:28.431Z,100878.66
2018-06-12T13:12:57.586Z,100873.81
2018-06-12T13:15:26.749Z,100877.87
2018-06-12T13:17:55.885Z,100883.41
2018-06-12T13:20:25.036Z,100884.66
2018-06-12T13:22:54.211Z,100889.23
2018-06-12T13:25:26.445Z,100886.58
2018-06-12T13:27:55.674Z,100895.97
2018-06-12T13:30:25.116Z,100894.48
2018-06-12T13:32:54.274Z,100896.23
2018-06-12T13:35:23.992Z,100898.17
2018-06-12T13:37:53.656Z,100896.34
2018-06-12T13:40:22.900Z,100896.84
2018-06-12T13:42:52.014Z,100900.83
2018-06-12T13:45:21.191Z,100906.19
2018-06-12T13:47:50.383Z,100900.56
2018-06-12T13:50:21.805Z,100901.63
2018-06-12T13:52:50.945Z,100907.31
2018-06-12T13:55:20.043Z,100907.75
2018-06-12T13:57:49.249Z,100908.29
2018-06-12T14:00:18.349Z,100910.84
2018-06-12T14:02:47.655Z,100912.07
2018-06-12T14:05:16.888Z,100907.00
2018-06-12T14:07:46.360Z,100900.48
2018-06-12T14:10:15.605Z,100904.84
2018-06-12T14:12:44.769Z,100897.53
2018-06-12T14:15:13.931Z,100898.98
2018-06-12T14:17:43.107Z,100899.45
2018-06-12T14:20:12.199Z,100900.16
2018-06-12T14:22:41.353Z,100900.31
2018-06-12T14:25:10.507Z,100902.44
2018-06-12T14:27:39.621Z,100906.80
2018-06-12T14:30:08.859Z,100904.59
2018-06-12T14:32:38.060Z,100906.65
2018-06-12T14:35:07.242Z,100902.88
2018-06-12T14:37:36.428Z,100906.37
2018-06-12T14:40:05.657Z,100914.73
2018-06-12T14:42:35.339Z,100912.89
2018-06-12T14:45:04.545Z,100908.94
2018-06-12T14:47:33.731Z,100910.61
2018-06-12T14:50:03.431Z,100903.53
2018-06-12T14:52:32.688Z,100913.69
2018-06-12T14:55:01.826Z,100919.11
2018-06-12T14:57:31.511Z,100918.60
2018-06-12T15:00:00.674Z,100925.55
2018-06-12T15:02:29.914Z,100923.10
2018-06-12T15:04:59.083Z,100921.27
2018-06-12T15:07:28.384Z,100913.64
2018-06-12T15:09:57.587Z,100917.23
2018-06-12T15:12:26.728Z,100922.13
2018-06-12T15:14:55.864Z,100914.67
2018-06-12T15:17:25.173Z,100913.88
2018-06-12T15:19:54.332Z,100913.78
2018-06-12T15:22:23.507Z,100911.06
2018-06-12T15:24:52.764Z,100915.61
2018-06-12T15:27:21.929Z,100917.08
2018-06-12T15:29:51.274Z,100908.70
2018-06-12T15:32:20.474Z,100911.67
2018-06-12T15:34:49.761Z,100907.94
2018-06-12T15:37:18.925Z,100898.52
2018-06-12T15:39:48.214Z,100897.59
2018-06-12T15:42:17.406Z,100897.00
2018-06-12T15:44:46.736Z,100895.66
2018-06-12T15:47:15.881Z,100901.55
2018-06-12T15:49:45.160Z,100902.78
2018-06-12T15:52:14.482Z,100908.73
2018-06-12T15:54:43.666Z,100912.16
2018-06-12T15:57:12.816Z,100907.28
2018-06-12T15:59:41.974Z,100905.58
2018-06-12T16:02:11.161Z,100907.64
2018-06-12T16:04:40.433Z,100912.02
2018-06-12T16:07:09.633Z,100903.03
2018-06-12T16:09:38.807Z,100906.43
2018-06-12T16:12:08.075Z,100901.32
2018-06-12T16:14:37.274Z,100894.73
2018-06-12T16:17:06.463Z,100879.76
2018-06-12T16:19:35.724Z,100891.43
2018-06-12T16:22:04.966Z,100888.94
2018-06-12T16:24:34.262Z,100893.61
2018-06-12T16:27:03.548Z,100891.92
2018-06-12T16:29:32.919Z,100898.52
2018-06-12T16:32:02.138Z,100895.05
2018-06-12T16:34:31.284Z,100897.98
2018-06-12T16:37:00.513Z,100895.78
2018-06-12T16:39:29.814Z,100896.14
2018-06-12T16:41:59.027Z,100901.95
2018-06-12T16:44:28.267Z,100891.16
2018-06-12T16:46:57.505Z,100890.08
2018-06-12T16:49:26.803Z,100890.42
2018-06-12T16:51:56.086Z,100879.16
2018-06-12T16:54:25.260Z,100880.95
2018-06-12T16:56:54.523Z,100881.22
2018-06-12T16:59:23.703Z,100885.14
2018-06-12T17:01:53.015Z,100880.05
2018-06-12T17:04:22.247Z,100878.56
2018-06-12T17:06:51.477Z,100881.91
2018-06-12T17:09:20.803Z,100879.17
2018-06-12T17:11:50.049Z,100872.61
2018-06-12T17:14:19.279Z,100870.19
2018-06-12T17:16:48.627Z,100872.69
2018-06-12T17:19:17.927Z,100869.53
2018-06-12T17:21:47.129Z,100864.70
2018-06-12T17:24:16.458Z,100871.88
2018-06-12T17:26:45.684Z,100873.94
2018-06-12T17:29:14.848Z,100866.18
2018-06-12T17:31:44.165Z,100866.91
2018-06-12T17:34:13.582Z,100866.67
2018-06-12T17:36:42.931Z,100872.16
2018-06-12T17:39:12.190Z,100877.37
2018-06-12T17:41:41.918Z,100877.86
2018-06-12T17:44:11.103Z,100874.11
2018-06-12T17:46:40.736Z,100867.55
2018-06-12T17:49:09.969Z,100869.38
2018-06-12T17:51:39.521Z,100885.16
2018-06-12T17:54:08.781Z,100889.66
2018-06-12T17:56:38.111Z,100885.88
2018-06-12T17:59:07.339Z,100875.42
2018-06-12T18:01:36.715Z,100890.25
2018-06-12T18:04:06.016Z,100890.98
2018-06-12T18:06:35.443Z,100885.53
2018-06-12T18:09:05.938Z,100890.63
2018-06-12T18:11:35.296Z,100884.53
2018-06-12T18:14:04.597Z,100895.62
2018-06-12T18:16:34.027Z,100886.27
2018-06-12T18:19:03.399Z,100882.83
2018-06-12T18:21:34.836Z,100889.05
2018-06-12T18:24:04.383Z,100890.98
2018-06-12T18:26:34.206Z,100901.45
2018-06-12T18:29:03.571Z,100887.64
2018-06-12T18:31:34.143Z,100897.98
2018-06-12T18:34:03.379Z,100901.48
2018-06-12T18:36:33.297Z,100894.42
2018-06-12T18:39:02.410Z,100897.06
2018-06-12T18:41:31.718Z,100896.31
2018-06-12T18:44:00.964Z,100896.20
2018-06-12T18:46:30.150Z,100903.39
2018-06-12T18:48:59.422Z,100911.13
2018-06-12T18:51:31.985Z,100912.64
2018-06-12T18:54:01.125Z,100913.70
2018-06-12T18:56:30.339Z,100911.77
2018-06-12T18:58:59.506Z,100912.23
2018-06-12T19:01:28.730Z,100916.59
2018-06-12T19:03:57.925Z,100915.89
2018-06-12T19:06:27.283Z,100916.73
2018-06-12T19:08:56.465Z,100923.41
2018-06-12T19:11:25.680Z,100919.16
2018-06-12T19:13:54.800Z,100926.34
2018-06-12T19:16:24.092Z,100918.58
2018-06-12T19:18:53.325Z,100926.11
2018-06-12T19:21:25.928Z,100930.00
2018-06-12T19:23:56.625Z,100933.42
2018-06-12T19:26:27.918Z,100925.53
2018-06-12T19:28:58.529Z,100926.98
2018-06-12T19:31:27.744Z,100932.03
2018-06-12T19:33:57.004Z,100937.55
2018-06-12T19:36:26.185Z,100937.66
2018-06-12T19:38:55.398Z,100940.38
2018-06-12T19:41:24.526Z,100941.51
2018-06-12T19:43:53.797Z,100952.19
2018-06-12T19:46:23.005Z,100965.17
2018-06-12T19:48:52.318Z,100967.70
2018-06-12T19:51:21.578Z,100972.92
2018-06-12T19:53:50.871Z,100975.06
2018-06-12T19:56:20.777Z,100981.05
2018-06-12T19:58:50.119Z,100987.44
2018-06-12T20:01:19.331Z,100987.44
2018-06-12T20:03:48.636Z,100994.41
2018-06-12T20:06:17.887Z,100996.66
2018-06-12T20:08:47.085Z,100995.34
2018-06-12T20:11:16.226Z,101004.67
2018-06-12T20:13:45.413Z,101005.54
2018-06-12T20:16:14.693Z,101010.23
2018-06-12T20:18:44.203Z,101011.99
2018-06-12T20:21:13.359Z,101012.35
2018-06-12T20:23:43.675Z,101007.56
2018-06-12T20:26:12.806Z,101010.15
2018-06-12T20:28:41.954Z,101012.45
2018-06-12T20:31:11.069Z,101013.42
2018-06-12T20:33:40.291Z,101017.67
2018-06-12T20:36:09.570Z,101020.19
2018-06-12T20:38:38.831Z,101024.88
2018-06-12T20:41:08.162Z,101025.19
2018-06-12T20:43:37.382Z,101024.28
2018-06-12T20:46:06.847Z,101019.20
2018-06-12T20:48:36.010Z,101019.05
2018-06-12T20:51:05.227Z,101025.60
2018-06-12T20:53:34.413Z,101022.28
2018-06-12T20:56:03.537Z,101032.22
2018-06-12T20:58:32.691Z,101029.36
2018-06-12T21:01:01.859Z,101030.13
2018-06-12T21:03:31.034Z,101029.66
2018-06-12T21:06:00.142Z,101030.33
2018-06-12T21:08:29.466Z,101029.76
2018-06-12T21:10:58.611Z,101024.69
2018-06-12T21:13:27.844Z,101026.58
2018-06-12T21:15:57.030Z,101021.71
2018-06-12T21:18:26.219Z,101030.48
2018-06-12T21:20:55.315Z,101026.38
2018-06-12T21:23:24.484Z,101020.64
2018-06-12T21:25:53.760Z,101023.83
2018-06-12T21:28:22.867Z,101028.48
2018-06-12T21:30:51.986Z,101027.67
2018-06-12T21:33:21.256Z,101026.80
2018-06-12T21:35:50.436Z,101019.67
2018-06-12T21:38:22.360Z,101028.48
2018-06-12T21:40:51.523Z,101037.86
2018-06-12T21:43:20.697Z,101027.22
2018-06-12T21:45:50.060Z,101025.64
2018-06-12T21:48:19.358Z,101026.77
2018-06-12T21:50:48.489Z,101026.04
2018-06-12T21:53:17.667Z,101028.14
2018-06-12T21:55:46.940Z,101026.05
2018-06-12T21:58:16.101Z,101030.50
2018-06-12T22:00:45.303Z,101028.00
2018-06-12T22:03:14.450Z,101026.50
2018-06-12T22:05:43.623Z,101027.73
2018-06-12T22:08:12.881Z,101029.53
2018-06-12T22:10:41.993Z,101030.57
2018-06-12T22:13:11.179Z,101031.47
2018-06-12T22:15:40.297Z,101034.30
2018-06-12T22:18:09.396Z,101030.14
2018-06-12T22:20:38.512Z,101025.24
2018-06-12T22:23:07.801Z,101024.22
2018-06-12T22:25:36.993Z,101023.48
2018-06-12T22:28:06.170Z,101025.02
2018-06-12T22:30:35.339Z,101028.25
2018-06-12T22:33:04.607Z,101028.35
2018-06-12T22:35:33.746Z,101020.27
2018-06-12T22:38:03.039Z,101024.83
2018-06-12T22:40:32.119Z,101030.19
2018-06-12T22:43:01.617Z,101029.59
2018-06-12T22:45:30.788Z,101031.25
2018-06-12T22:47:59.980Z,101037.80
2018-06-12T22:50:29.136Z,101038.00
2018-06-12T22:52:58.412Z,101037.23
2018-06-12T22:55:27.672Z,101032.48
2018-06-12T22:57:57.016Z,101037.47
2018-06-12T23:00:26.182Z,101044.45
2018-06-12T23:02:55.419Z,101051.30
2018-06-12T23:05:24.667Z,101048.83
2018-06-12T23:07:53.861Z,101057.31
2018-06-12T23:10:23.127Z,101055.48
2018-06-12T23:12:52.213Z,101061.30
2018-06-12T23:15:21.411Z,101065.38
2018-06-12T23:17:50.533Z,101060.07
2018-06-12T23:20:30.870Z,101068.70
2018-06-12T23:23:00.017Z,101057.51
2018-06-12T23:25:29.189Z,101068.88
2018-06-12T23:27:58.266Z,101058.34
2018-06-12T23:30:27.458Z,101059.47
2018-06-12T23:32:56.575Z,101070.78
2018-06-12T23:35:25.729Z,101058.13
2018-06-12T23:37:54.946Z,101058.30
2018-06-12T23:40:24.091Z,101063.53
2018-06-12T23:42:53.217Z,101056.03
2018-06-12T23:45:22.313Z,101050.62
2018-06-12T23:47:51.568Z,101047.65
2018-06-12T23:50:20.730Z,101048.52
2018-06-12T23:52:49.877Z,101046.38
2018-06-12T23:55:18.988Z,101052.19
2018-06-12T23:57:48.154Z,101049.12
